Time,TemperatureF,DewpointF,PressureIn,WindDirection,WindDirectionDegrees,WindSpeedMPH,WindSpeedGustMPH,Humidity,HourlyPrecipIn,Conditions,Clouds,dailyrainin,SoftwareType,DateUTC
2013-03-15 00:00:00,52.2,34.6,29.88,SSW,198,4.0,10.0,51,0.00,,,0.00,VWS V14.01,2013-03-15 05:00:00,
2013-03-15 00:04:00,54.2,32.8,29.91,South,171,3.0,6.0,44,0.00,,,0.00,VWS V14.01,2013-03-15 05:04:00,
2013-03-15 00:09:00,54.1,33.2,29.91,South,171,2.0,6.0,45,0.00,,,0.00,VWS V14.01,2013-03-15 05:09:00,
2013-03-15 00:14:00,53.8,34.1,29.91,South,171,2.0,6.0,47,0.00,,,0.00,VWS V14.01,2013-03-15 05:14:00,
2013-03-15 00:15:00,51.7,34.2,29.87,South,191,6.0,10.0,51,0.00,,,0.00,VWS V14.01,2013-03-15 05:15:00,
2013-03-15 00:19:00,53.3,33.1,29.89,South,171,2.0,6.0,46,0.00,,,0.00,VWS V14.01,2013-03-15 05:19:00,
2013-03-15 00:24:00,53.1,34.0,29.89,South,171,3.0,6.0,48,0.00,,,0.00,VWS V14.01,2013-03-15 05:24:00,
2013-03-15 00:29:00,52.9,33.8,29.89,South,171,2.0,6.0,48,0.00,,,0.00,VWS V14.01,2013-03-15 05:29:00,
2013-03-15 00:30:00,51.0,34.5,29.86,South,191,2.0,7.0,53,0.00,,,0.00,VWS V14.01,2013-03-15 05:30:00,
2013-03-15 00:34:00,52.8,33.7,29.89,South,191,2.0,5.0,48,0.00,,,0.00,VWS V14.01,2013-03-15 05:34:00,
2013-03-15 00:39:00,52.6,34.5,29.89,South,191,2.0,6.0,50,0.00,,,0.00,VWS V14.01,2013-03-15 05:39:00,
2013-03-15 00:44:00,52.5,33.9,29.89,South,189,2.0,7.0,49,0.00,,,0.00,VWS V14.01,2013-03-15 05:44:00,
2013-03-15 00:45:00,49.9,34.8,29.85,SSW,206,4.0,9.0,56,0.00,,,0.00,VWS V14.01,2013-03-15 05:45:00,
2013-03-15 00:49:00,52.5,33.9,29.88,South,189,5.0,7.0,49,0.00,,,0.00,VWS V14.01,2013-03-15 05:49:00,
2013-03-15 00:54:00,52.3,33.7,29.88,South,189,6.0,7.0,49,0.00,,,0.00,VWS V14.01,2013-03-15 05:54:00,
2013-03-15 00:59:00,52.3,33.7,29.88,SSW,200,6.0,8.0,49,0.00,,,0.00,VWS V14.01,2013-03-15 05:59:00,
2013-03-15 01:00:00,49.9,35.3,29.85,SSW,196,10.0,12.0,57,0.00,,,0.00,VWS V14.01,2013-03-15 06:00:00,
2013-03-15 01:04:00,52.0,33.5,29.88,SSW,198,6.0,8.0,49,0.00,,,0.00,VWS V14.01,2013-03-15 06:04:00,
2013-03-15 01:09:00,51.9,34.4,29.88,SSW,193,6.0,9.0,51,0.00,,,0.00,VWS V14.01,2013-03-15 06:09:00,
2013-03-15 01:14:00,51.7,33.7,29.88,South,191,5.0,10.0,50,0.00,,,0.00,VWS V14.01,2013-03-15 06:14:00,
2013-03-15 01:15:00,51.1,35.5,29.83,SSW,206,13.0,17.0,55,0.00,,,0.00,VWS V14.01,2013-03-15 06:15:00,
2013-03-15 01:19:00,51.6,34.6,29.87,South,191,4.0,6.0,52,0.00,,,0.00,VWS V14.01,2013-03-15 06:19:00,
2013-03-15 01:24:00,51.4,34.9,29.87,South,191,5.0,7.0,53,0.00,,,0.00,VWS V14.01,2013-03-15 06:24:00,
2013-03-15 01:29:00,51.1,34.6,29.87,South,191,4.0,7.0,53,0.00,,,0.00,VWS V14.01,2013-03-15 06:29:00,
2013-03-15 01:30:00,51.1,34.6,29.83,SSW,210,12.0,19.0,53,0.00,,,0.00,VWS V14.01,2013-03-15 06:30:00,
2013-03-15 01:34:00,50.8,34.3,29.86,South,191,1.0,4.0,53,0.00,,,0.00,VWS V14.01,2013-03-15 06:34:00,
2013-03-15 01:39:00,50.5,34.5,29.86,South,191,2.0,4.0,54,0.00,,,0.00,VWS V14.01,2013-03-15 06:39:00,
2013-03-15 01:44:00,50.2,34.7,29.86,SSW,213,5.0,8.0,55,0.00,,,0.00,VWS V14.01,2013-03-15 06:44:00,
2013-03-15 01:45:00,50.8,34.8,29.82,SW,220,12.0,21.0,54,0.00,,,0.00,VWS V14.01,2013-03-15 06:45:00,
2013-03-15 01:49:00,49.9,34.4,29.85,SSW,212,4.0,8.0,55,0.00,,,0.00,VWS V14.01,2013-03-15 06:49:00,
2013-03-15 01:54:00,49.9,34.4,29.85,SSW,209,7.0,8.0,55,0.00,,,0.00,VWS V14.01,2013-03-15 06:54:00,
2013-03-15 01:59:00,49.9,35.3,29.85,SSW,208,5.0,10.0,57,0.00,,,0.00,VWS V14.01,2013-03-15 06:59:00,
2013-03-15 02:00:00,50.4,34.9,29.81,SW,216,10.0,19.0,55,0.00,,,0.00,VWS V14.01,2013-03-15 07:00:00,
2013-03-15 02:04:00,50.1,35.0,29.85,SW,223,10.0,12.0,56,0.00,,,0.00,VWS V14.01,2013-03-15 07:04:00,
2013-03-15 02:09:00,50.4,34.9,29.85,SW,220,12.0,13.0,55,0.00,,,0.00,VWS V14.01,2013-03-15 07:09:00,
2013-03-15 02:14:00,50.8,34.3,29.85,SW,219,10.0,17.0,53,0.00,,,0.00,VWS V14.01,2013-03-15 07:14:00,
2013-03-15 02:15:00,49.6,34.6,29.79,SSW,205,10.0,14.0,56,0.00,,,0.00,VWS V14.01,2013-03-15 07:15:00,
2013-03-15 02:19:00,51.3,34.8,29.83,SW,217,14.0,17.0,53,0.00,,,0.00,VWS V14.01,2013-03-15 07:19:00,
2013-03-15 02:24:00,51.3,35.7,29.83,SSW,212,17.0,19.0,55,0.00,,,0.00,VWS V14.01,2013-03-15 07:24:00,
2013-03-15 02:29:00,51.1,35.0,29.83,SSW,212,12.0,19.0,54,0.00,,,0.00,VWS V14.01,2013-03-15 07:29:00,
2013-03-15 02:30:00,49.4,34.8,29.79,SW,219,12.0,17.0,57,0.00,,,0.00,VWS V14.01,2013-03-15 07:30:00,
2013-03-15 02:34:00,51.1,34.1,29.83,SSW,208,11.0,19.0,52,0.00,,,0.00,VWS V14.01,2013-03-15 07:34:00,
2013-03-15 02:39:00,51.0,35.9,29.83,SW,222,12.0,19.0,56,0.00,,,0.00,VWS V14.01,2013-03-15 07:39:00,
2013-03-15 02:44:00,50.8,35.7,29.83,SW,217,13.0,19.0,56,0.00,,,0.00,VWS V14.01,2013-03-15 07:44:00,
2013-03-15 02:45:00,48.9,33.5,29.79,SW,226,6.0,13.0,55,0.00,,,0.00,VWS V14.01,2013-03-15 07:45:00,
2013-03-15 02:49:00,50.8,35.7,29.82,SW,227,14.0,17.0,56,0.00,,,0.00,VWS V14.01,2013-03-15 07:49:00,
2013-03-15 02:54:00,50.8,35.7,29.82,SSW,208,10.0,19.0,56,0.00,,,0.00,VWS V14.01,2013-03-15 07:54:00,
2013-03-15 02:59:00,50.5,35.0,29.82,SSW,212,13.0,19.0,55,0.00,,,0.00,VWS V14.01,2013-03-15 07:59:00,
2013-03-15 03:00:00,49.2,32.8,29.78,SSW,213,10.0,12.0,53,0.00,,,0.00,VWS V14.01,2013-03-15 08:00:00,
2013-03-15 03:04:00,50.2,34.7,29.81,SW,220,10.0,12.0,55,0.00,,,0.00,VWS V14.01,2013-03-15 08:04:00,
2013-03-15 03:09:00,49.9,34.8,29.81,SSW,209,10.0,14.0,56,0.00,,,0.00,VWS V14.01,2013-03-15 08:09:00,
2013-03-15 03:14:00,49.8,35.2,29.81,SW,222,11.0,14.0,57,0.00,,,0.00,VWS V14.01,2013-03-15 08:14:00,
2013-03-15 03:15:00,49.6,32.7,29.78,SW,223,6.0,15.0,52,0.00,,,0.00,VWS V14.01,2013-03-15 08:15:00,
2013-03-15 03:19:00,49.6,34.6,29.79,SW,216,7.0,17.0,56,0.00,,,0.00,VWS V14.01,2013-03-15 08:19:00,
2013-03-15 03:24:00,49.5,34.5,29.79,SW,216,7.0,17.0,56,0.00,,,0.00,VWS V14.01,2013-03-15 08:24:00,
2013-03-15 03:29:00,49.4,34.4,29.79,SSW,210,10.0,17.0,56,0.00,,,0.00,VWS V14.01,2013-03-15 08:29:00,
2013-03-15 03:30:00,48.6,33.2,29.77,SW,227,11.0,11.0,55,0.00,,,0.00,VWS V14.01,2013-03-15 08:30:00,
2013-03-15 03:34:00,49.4,33.9,29.79,SSW,206,11.0,13.0,55,0.00,,,0.00,VWS V14.01,2013-03-15 08:34:00,
2013-03-15 03:39:00,49.1,34.5,29.79,SSW,212,8.0,13.0,57,0.00,,,0.00,VWS V14.01,2013-03-15 08:39:00,
2013-03-15 03:44:00,49.1,34.1,29.79,SSW,210,5.0,13.0,56,0.00,,,0.00,VWS V14.01,2013-03-15 08:44:00,
2013-03-15 03:45:00,47.1,32.7,29.77,WSW,239,9.0,11.0,57,0.00,,,0.00,VWS V14.01,2013-03-15 08:45:00,
2013-03-15 03:49:00,48.9,33.9,29.79,SW,223,7.0,10.0,56,0.00,,,0.00,VWS V14.01,2013-03-15 08:49:00,
2013-03-15 03:54:00,48.8,33.8,29.79,SW,233,5.0,10.0,56,0.00,,,0.00,VWS V14.01,2013-03-15 08:54:00,
2013-03-15 03:59:00,48.9,33.9,29.79,SW,217,11.0,11.0,56,0.00,,,0.00,VWS V14.01,2013-03-15 08:59:00,
2013-03-15 04:00:00,46.7,32.7,29.75,WSW,240,5.0,11.0,58,0.00,,,0.00,VWS V14.01,2013-03-15 09:00:00,
2013-03-15 04:04:00,49.5,33.1,29.78,SW,217,12.0,13.0,53,0.00,,,0.00,VWS V14.01,2013-03-15 09:04:00,
2013-03-15 04:09:00,50.1,32.2,29.78,SSW,210,8.0,15.0,50,0.00,,,0.00,VWS V14.01,2013-03-15 09:09:00,
2013-03-15 04:14:00,49.9,33.5,29.78,SW,227,8.0,15.0,53,0.00,,,0.00,VWS V14.01,2013-03-15 09:14:00,
2013-03-15 04:15:00,45.8,32.3,29.76,WSW,246,7.0,10.0,59,0.00,,,0.00,VWS V14.01,2013-03-15 09:15:00,
2013-03-15 04:19:00,49.4,33.0,29.78,SW,227,7.0,10.0,53,0.00,,,0.00,VWS V14.01,2013-03-15 09:19:00,
2013-03-15 04:24:00,49.1,33.7,29.78,SSW,212,8.0,10.0,55,0.00,,,0.00,VWS V14.01,2013-03-15 09:24:00,
2013-03-15 04:29:00,48.9,33.0,29.78,SW,233,10.0,11.0,54,0.00,,,0.00,VWS V14.01,2013-03-15 09:29:00,
2013-03-15 04:30:00,45.1,32.5,29.75,WSW,248,3.0,8.0,61,0.00,,,0.00,VWS V14.01,2013-03-15 09:30:00,
2013-03-15 04:34:00,48.3,32.9,29.77,SW,229,9.0,11.0,55,0.00,,,0.00,VWS V14.01,2013-03-15 09:34:00,
2013-03-15 04:39:00,47.6,32.7,29.77,SW,227,8.0,11.0,56,0.00,,,0.00,VWS V14.01,2013-03-15 09:39:00,
2013-03-15 04:44:00,47.3,32.8,29.77,SW,236,5.0,11.0,57,0.00,,,0.00,VWS V14.01,2013-03-15 09:44:00,
2013-03-15 04:45:00,44.6,32.4,29.75,WSW,253,2.0,6.0,62,0.00,,,0.00,VWS V14.01,2013-03-15 09:45:00,
2013-03-15 04:49:00,47.3,32.4,29.77,SW,234,7.0,11.0,56,0.00,,,0.00,VWS V14.01,2013-03-15 09:49:00,
2013-03-15 04:54:00,47.1,33.1,29.77,WSW,237,5.0,11.0,58,0.00,,,0.00,VWS V14.01,2013-03-15 09:54:00,
2013-03-15 04:59:00,46.8,33.2,29.77,WSW,239,4.0,11.0,59,0.00,,,0.00,VWS V14.01,2013-03-15 09:59:00,
2013-03-15 05:00:00,42.5,32.7,29.76,WSW,253,2.0,7.0,68,0.00,,,0.00,VWS V14.01,2013-03-15 10:00:00,
2013-03-15 05:04:00,46.5,33.0,29.75,WSW,241,5.0,6.0,59,0.00,,,0.00,VWS V14.01,2013-03-15 10:04:00,
2013-03-15 05:09:00,46.4,32.4,29.75,WSW,246,7.0,8.0,58,0.00,,,0.00,VWS V14.01,2013-03-15 10:09:00,
2013-03-15 05:14:00,46.0,33.3,29.75,WSW,244,5.0,10.0,61,0.00,,,0.00,VWS V14.01,2013-03-15 10:14:00,
2013-03-15 05:15:00,42.2,32.4,29.76,WSW,253,5.0,6.0,68,0.00,,,0.00,VWS V14.01,2013-03-15 10:15:00,
2013-03-15 05:19:00,45.7,32.6,29.76,WSW,241,6.0,8.0,60,0.00,,,0.00,VWS V14.01,2013-03-15 10:19:00,
2013-03-15 05:24:00,45.4,32.8,29.76,WSW,247,3.0,8.0,61,0.00,,,0.00,VWS V14.01,2013-03-15 10:24:00,
2013-03-15 05:29:00,45.2,32.6,29.76,WSW,248,0.0,8.0,61,0.00,,,0.00,VWS V14.01,2013-03-15 10:29:00,
2013-03-15 05:30:00,42.8,31.5,29.75,WSW,250,5.0,6.0,64,0.00,,,0.00,VWS V14.01,2013-03-15 10:30:00,
2013-03-15 05:34:00,45.2,31.3,29.75,WSW,253,2.0,6.0,58,0.00,,,0.00,VWS V14.01,2013-03-15 10:34:00,
2013-03-15 05:39:00,45.1,32.5,29.75,WSW,253,1.0,6.0,61,0.00,,,0.00,VWS V14.01,2013-03-15 10:39:00,
2013-03-15 05:44:00,44.8,32.6,29.75,WSW,253,2.0,6.0,62,0.00,,,0.00,VWS V14.01,2013-03-15 10:44:00,
2013-03-15 05:45:00,43.2,31.5,29.75,WSW,251,0.0,7.0,63,0.00,,,0.00,VWS V14.01,2013-03-15 10:45:00,
2013-03-15 05:49:00,44.2,32.8,29.75,WSW,253,3.0,6.0,64,0.00,,,0.00,VWS V14.01,2013-03-15 10:49:00,
2013-03-15 05:54:00,43.3,33.1,29.75,WSW,253,4.0,6.0,67,0.00,,,0.00,VWS V14.01,2013-03-15 10:54:00,
2013-03-15 05:59:00,42.6,32.8,29.75,WSW,253,3.0,7.0,68,0.00,,,0.00,VWS V14.01,2013-03-15 10:59:00,
2013-03-15 06:00:00,43.1,31.4,29.75,WSW,251,5.0,6.0,63,0.00,,,0.00,VWS V14.01,2013-03-15 11:00:00,
2013-03-15 06:04:00,42.5,32.3,29.76,WSW,253,5.0,5.0,67,0.00,,,0.00,VWS V14.01,2013-03-15 11:04:00,
2013-03-15 06:09:00,42.6,32.0,29.76,WSW,253,5.0,6.0,66,0.00,,,0.00,VWS V14.01,2013-03-15 11:09:00,
2013-03-15 06:14:00,42.3,32.1,29.76,WSW,253,5.0,6.0,67,0.00,,,0.00,VWS V14.01,2013-03-15 11:14:00,
2013-03-15 06:15:00,41.9,31.4,29.76,WSW,253,5.0,7.0,66,0.00,,,0.00,VWS V14.01,2013-03-15 11:15:00,
2013-03-15 06:19:00,42.1,32.0,29.76,WSW,253,4.0,6.0,67,0.00,,,0.00,VWS V14.01,2013-03-15 11:19:00,
2013-03-15 06:24:00,42.2,31.7,29.76,WSW,253,6.0,6.0,66,0.00,,,0.00,VWS V14.01,2013-03-15 11:24:00,
2013-03-15 06:29:00,42.8,31.5,29.76,WSW,251,5.0,6.0,64,0.00,,,0.00,VWS V14.01,2013-03-15 11:29:00,
2013-03-15 06:30:00,41.9,31.0,29.75,WSW,253,2.0,6.0,65,0.00,,,0.00,VWS V14.01,2013-03-15 11:30:00,
2013-03-15 06:34:00,42.8,31.9,29.75,WSW,251,5.0,7.0,65,0.00,,,0.00,VWS V14.01,2013-03-15 11:34:00,
2013-03-15 06:39:00,42.9,31.6,29.75,WSW,251,6.0,7.0,64,0.00,,,0.00,VWS V14.01,2013-03-15 11:39:00,
2013-03-15 06:44:00,43.1,31.4,29.75,WSW,251,0.0,7.0,63,0.00,,,0.00,VWS V14.01,2013-03-15 11:44:00,
2013-03-15 06:45:00,42.2,31.3,29.75,WSW,253,4.0,5.0,65,0.00,,,0.00,VWS V14.01,2013-03-15 11:45:00,
2013-03-15 06:49:00,43.3,31.6,29.75,WSW,251,1.0,5.0,63,0.00,,,0.00,VWS V14.01,2013-03-15 11:49:00,
2013-03-15 06:54:00,43.3,31.6,29.75,WSW,251,1.0,5.0,63,0.00,,,0.00,VWS V14.01,2013-03-15 11:54:00,
2013-03-15 06:59:00,43.2,32.2,29.75,WSW,251,5.0,6.0,65,0.00,,,0.00,VWS V14.01,2013-03-15 11:59:00,
2013-03-15 07:00:00,41.9,31.4,29.75,WSW,251,3.0,7.0,66,0.00,,,0.00,VWS V14.01,2013-03-15 12:00:00,
2013-03-15 07:04:00,42.9,31.6,29.75,WSW,251,4.0,5.0,64,0.00,,,0.00,VWS V14.01,2013-03-15 12:04:00,
2013-03-15 07:09:00,42.6,32.0,29.75,WSW,253,5.0,5.0,66,0.00,,,0.00,VWS V14.01,2013-03-15 12:09:00,
2013-03-15 07:14:00,41.9,31.4,29.75,WSW,253,6.0,7.0,66,0.00,,,0.00,VWS V14.01,2013-03-15 12:14:00,
2013-03-15 07:15:00,42.6,31.7,29.75,WSW,253,6.0,7.0,65,0.00,,,0.00,VWS V14.01,2013-03-15 12:15:00,
2013-03-15 07:19:00,41.8,31.7,29.76,WSW,253,5.0,6.0,67,0.00,,,0.00,VWS V14.01,2013-03-15 12:19:00,
2013-03-15 07:24:00,41.8,31.7,29.76,WSW,251,2.0,6.0,67,0.00,,,0.00,VWS V14.01,2013-03-15 12:24:00,
2013-03-15 07:29:00,41.9,31.4,29.76,WSW,253,3.0,6.0,66,0.00,,,0.00,VWS V14.01,2013-03-15 12:29:00,
2013-03-15 07:30:00,43.3,32.0,29.75,WSW,253,2.0,7.0,64,0.00,,,0.00,VWS V14.01,2013-03-15 12:30:00,
2013-03-15 07:34:00,42.1,31.2,29.75,WSW,253,2.0,3.0,65,0.00,,,0.00,VWS V14.01,2013-03-15 12:34:00,
2013-03-15 07:39:00,42.1,31.2,29.75,WSW,253,0.0,3.0,65,0.00,,,0.00,VWS V14.01,2013-03-15 12:39:00,
2013-03-15 07:44:00,42.1,31.2,29.75,WSW,253,2.0,3.0,65,0.00,,,0.00,VWS V14.01,2013-03-15 12:44:00,
2013-03-15 07:45:00,44.8,32.2,29.74,WSW,254,6.0,7.0,61,0.00,,,0.00,VWS V14.01,2013-03-15 12:45:00,
2013-03-15 07:49:00,42.2,31.3,29.75,WSW,253,5.0,7.0,65,0.00,,,0.00,VWS V14.01,2013-03-15 12:49:00,
2013-03-15 07:54:00,42.2,31.3,29.75,WSW,254,5.0,7.0,65,0.00,,,0.00,VWS V14.01,2013-03-15 12:54:00,
2013-03-15 07:59:00,41.9,31.0,29.75,WSW,254,5.0,7.0,65,0.00,,,0.00,VWS V14.01,2013-03-15 12:59:00,
2013-03-15 08:00:00,46.0,32.9,29.73,WSW,254,6.0,10.0,60,0.00,,,0.00,VWS V14.01,2013-03-15 13:00:00,
2013-03-15 08:04:00,41.9,31.4,29.75,WSW,254,1.0,5.0,66,0.00,,,0.00,VWS V14.01,2013-03-15 13:04:00,
2013-03-15 08:09:00,42.2,31.7,29.75,WSW,254,2.0,5.0,66,0.00,,,0.00,VWS V14.01,2013-03-15 13:09:00,
2013-03-15 08:14:00,42.5,31.6,29.75,WSW,256,5.0,7.0,65,0.00,,,0.00,VWS V14.01,2013-03-15 13:14:00,
2013-03-15 08:15:00,47.1,33.1,29.74,WSW,254,2.0,6.0,58,0.00,,,0.00,VWS V14.01,2013-03-15 13:15:00,
2013-03-15 08:19:00,42.8,31.5,29.75,WSW,250,6.0,7.0,64,0.00,,,0.00,VWS V14.01,2013-03-15 13:19:00,
2013-03-15 08:24:00,43.1,31.8,29.75,WSW,253,4.0,7.0,64,0.00,,,0.00,VWS V14.01,2013-03-15 13:24:00,
2013-03-15 08:29:00,43.2,31.9,29.75,WSW,253,2.0,7.0,64,0.00,,,0.00,VWS V14.01,2013-03-15 13:29:00,
2013-03-15 08:30:00,49.2,33.3,29.73,WSW,253,6.0,10.0,54,0.00,,,0.00,VWS V14.01,2013-03-15 13:30:00,
2013-03-15 08:34:00,43.3,32.7,29.75,WSW,253,2.0,5.0,66,0.00,,,0.00,VWS V14.01,2013-03-15 13:34:00,
2013-03-15 08:39:00,43.9,32.1,29.75,WSW,254,2.0,6.0,63,0.00,,,0.00,VWS V14.01,2013-03-15 13:39:00,
2013-03-15 08:44:00,44.5,31.9,29.75,WSW,254,6.0,6.0,61,0.00,,,0.00,VWS V14.01,2013-03-15 13:44:00,
2013-03-15 08:45:00,50.8,34.8,29.73,WSW,241,5.0,8.0,54,0.00,,,0.00,VWS V14.01,2013-03-15 13:45:00,
2013-03-15 08:49:00,45.2,31.7,29.74,WSW,254,3.0,7.0,59,0.00,,,0.00,VWS V14.01,2013-03-15 13:49:00,
2013-03-15 08:54:00,45.7,32.6,29.74,WSW,250,10.0,10.0,60,0.00,,,0.00,VWS V14.01,2013-03-15 13:54:00,
2013-03-15 08:59:00,46.0,33.3,29.74,WSW,250,6.0,10.0,61,0.00,,,0.00,VWS V14.01,2013-03-15 13:59:00,
2013-03-15 09:00:00,52.8,34.2,29.72,West,274,5.0,7.0,49,0.00,,,0.00,VWS V14.01,2013-03-15 14:00:00,
2013-03-15 09:04:00,46.1,33.0,29.73,WSW,254,2.0,6.0,60,0.00,,,0.00,VWS V14.01,2013-03-15 14:04:00,
2013-03-15 09:09:00,46.4,32.9,29.73,WSW,254,0.0,6.0,59,0.00,,,0.00,VWS V14.01,2013-03-15 14:09:00,
2013-03-15 09:14:00,47.0,33.0,29.73,WSW,254,2.0,6.0,58,0.00,,,0.00,VWS V14.01,2013-03-15 14:14:00,
2013-03-15 09:15:00,53.9,34.2,29.73,WSW,251,2.0,10.0,47,0.00,,,0.00,VWS V14.01,2013-03-15 14:15:00,
2013-03-15 09:19:00,47.7,33.2,29.74,WSW,250,7.0,10.0,57,0.00,,,0.00,VWS V14.01,2013-03-15 14:19:00,
2013-03-15 09:24:00,48.5,33.1,29.74,WSW,254,7.0,10.0,55,0.00,,,0.00,VWS V14.01,2013-03-15 14:24:00,
2013-03-15 09:29:00,49.1,33.2,29.74,WSW,248,10.0,10.0,54,0.00,,,0.00,VWS V14.01,2013-03-15 14:29:00,
2013-03-15 09:30:00,56.2,34.0,29.72,West,271,2.0,6.0,43,0.00,,,0.00,VWS V14.01,2013-03-15 14:30:00,
2013-03-15 09:34:00,49.6,33.7,29.73,WSW,251,1.0,8.0,54,0.00,,,0.00,VWS V14.01,2013-03-15 14:34:00,
2013-03-15 09:40:00,50.2,33.3,29.73,SW,230,6.0,8.0,52,0.00,,,0.00,VWS V14.01,2013-03-15 14:40:00,
2013-03-15 09:45:00,50.5,34.0,29.73,WSW,241,2.0,8.0,53,0.00,,,0.00,VWS V14.01,2013-03-15 14:45:00,
2013-03-15 09:50:00,51.3,34.3,29.73,WSW,250,3.0,7.0,52,0.00,,,0.00,VWS V14.01,2013-03-15 14:50:00,
2013-03-15 09:55:00,52.0,34.5,29.73,WSW,247,5.0,7.0,51,0.00,,,0.00,VWS V14.01,2013-03-15 14:55:00,
2013-03-15 10:00:00,52.6,33.0,29.73,West,272,2.0,7.0,47,0.00,,,0.00,VWS V14.01,2013-03-15 15:00:00,
2013-03-15 10:05:00,53.2,32.4,29.72,WNW,285,2.0,10.0,45,0.00,,,0.00,VWS V14.01,2013-03-15 15:05:00,
2013-03-15 10:10:00,53.6,33.9,29.72,WSW,257,4.0,10.0,47,0.00,,,0.00,VWS V14.01,2013-03-15 15:10:00,
2013-03-15 10:15:00,53.8,35.1,29.72,WSW,254,3.0,10.0,49,0.00,,,0.00,VWS V14.01,2013-03-15 15:15:00,
2013-03-15 10:20:00,54.4,34.1,29.73,West,270,3.0,5.0,46,0.00,,,0.00,VWS V14.01,2013-03-15 15:20:00,
2013-03-15 10:25:00,55.0,32.9,29.73,West,271,2.0,6.0,43,0.00,,,0.00,VWS V14.01,2013-03-15 15:25:00,
2013-03-15 10:30:00,55.9,33.8,29.73,West,271,0.0,6.0,43,0.00,,,0.00,VWS V14.01,2013-03-15 15:30:00,
2013-03-15 10:34:00,56.9,33.5,29.72,West,271,1.0,2.0,41,0.00,,,0.00,VWS V14.01,2013-03-15 15:34:00,
2013-03-15 10:40:00,57.8,33.7,29.72,West,271,2.0,3.0,40,0.00,,,0.00,VWS V14.01,2013-03-15 15:40:00,
2013-03-15 10:45:00,58.4,32.9,29.72,West,272,1.0,5.0,38,0.00,,,0.00,VWS V14.01,2013-03-15 15:45:00,
2013-03-15 10:50:00,59.0,32.8,29.70,West,278,2.0,5.0,37,0.00,,,0.00,VWS V14.01,2013-03-15 15:50:00,
2013-03-15 10:55:00,59.6,32.6,29.70,NW,323,1.0,7.0,36,0.00,,,0.00,VWS V14.01,2013-03-15 15:55:00,
2013-03-15 11:00:00,59.8,32.1,29.70,NNW,333,2.0,7.0,35,0.00,,,0.00,VWS V14.01,2013-03-15 16:00:00,
2013-03-15 11:05:00,60.4,30.4,29.69,NNW,340,1.0,7.0,32,0.00,,,0.00,VWS V14.01,2013-03-15 16:05:00,
2013-03-15 11:10:00,61.8,30.9,29.69,NNW,340,3.0,7.0,31,0.00,,,0.00,VWS V14.01,2013-03-15 16:10:00,
2013-03-15 11:15:00,62.7,30.0,29.69,NW,309,2.0,7.0,29,0.00,,,0.00,VWS V14.01,2013-03-15 16:15:00,
2013-03-15 11:20:00,63.7,30.9,29.69,WNW,288,2.0,7.0,29,0.00,,,0.00,VWS V14.01,2013-03-15 16:20:00,
2013-03-15 11:25:00,64.0,30.3,29.69,WNW,291,2.0,7.0,28,0.00,,,0.00,VWS V14.01,2013-03-15 16:25:00,
2013-03-15 11:30:00,64.5,30.7,29.69,WNW,285,3.0,7.0,28,0.00,,,0.00,VWS V14.01,2013-03-15 16:30:00,
2013-03-15 11:35:00,65.0,31.1,29.68,WNW,285,2.0,5.0,28,0.00,,,0.00,VWS V14.01,2013-03-15 16:35:00,
2013-03-15 11:39:00,65.8,30.9,29.68,West,260,2.0,5.0,27,0.00,,,0.00,VWS V14.01,2013-03-15 16:39:00,
2013-03-15 11:45:00,66.4,31.4,29.68,WNW,284,2.0,6.0,27,0.00,,,0.00,VWS V14.01,2013-03-15 16:45:00,
2013-03-15 11:49:00,67.1,32.0,29.67,WNW,302,2.0,6.0,27,0.00,,,0.00,VWS V14.01,2013-03-15 16:49:00,
2013-03-15 11:55:00,67.8,30.7,29.67,WNW,302,0.0,6.0,25,0.00,,,0.00,VWS V14.01,2013-03-15 16:55:00,
2013-03-15 12:00:00,68.4,30.2,29.67,West,260,0.0,6.0,24,0.00,,,0.00,VWS V14.01,2013-03-15 17:00:00,
2013-03-15 12:05:00,69.1,29.8,29.66,WSW,253,5.0,7.0,23,0.00,,,0.00,VWS V14.01,2013-03-15 17:05:00,
2013-03-15 12:10:00,69.3,31.0,29.66,WSW,253,1.0,7.0,24,0.00,,,0.00,VWS V14.01,2013-03-15 17:10:00,
2013-03-15 12:15:00,69.6,31.2,29.66,WSW,253,0.0,7.0,24,0.00,,,0.00,VWS V14.01,2013-03-15 17:15:00,
2013-03-15 12:20:00,70.1,31.7,29.65,WSW,253,0.0,2.0,24,0.00,,,0.00,VWS V14.01,2013-03-15 17:20:00,
2013-03-15 12:25:00,69.8,30.4,29.65,WSW,253,0.0,2.0,23,0.00,,,0.00,VWS V14.01,2013-03-15 17:25:00,
2013-03-15 12:30:00,69.6,29.1,29.65,WSW,253,2.0,3.0,22,0.00,,,0.00,VWS V14.01,2013-03-15 17:30:00,
2013-03-15 12:35:00,70.3,29.7,29.64,WSW,253,1.0,2.0,22,0.00,,,0.00,VWS V14.01,2013-03-15 17:35:00,
2013-03-15 12:40:00,70.8,30.1,29.64,WSW,253,0.0,5.0,22,0.00,,,0.00,VWS V14.01,2013-03-15 17:40:00,
2013-03-15 12:45:00,71.3,30.5,29.64,WSW,254,2.0,6.0,22,0.00,,,0.00,VWS V14.01,2013-03-15 17:45:00,
2013-03-15 12:50:00,72.0,27.5,29.64,West,263,2.0,11.0,19,0.00,,,0.00,VWS V14.01,2013-03-15 17:50:00,
2013-03-15 12:55:00,72.1,28.9,29.64,WSW,247,9.0,12.0,20,0.00,,,0.00,VWS V14.01,2013-03-15 17:55:00,
2013-03-15 13:00:00,71.8,30.9,29.64,WSW,248,10.0,14.0,22,0.00,,,0.00,VWS V14.01,2013-03-15 18:00:00,
2013-03-15 13:05:00,71.8,28.6,29.64,WSW,247,8.0,14.0,20,0.00,,,0.00,VWS V14.01,2013-03-15 18:05:00,
2013-03-15 13:10:00,72.1,28.9,29.64,West,278,2.0,14.0,20,0.00,,,0.00,VWS V14.01,2013-03-15 18:10:00,
2013-03-15 13:15:00,72.3,29.0,29.64,West,268,2.0,14.0,20,0.00,,,0.00,VWS V14.01,2013-03-15 18:15:00,
2013-03-15 13:20:00,72.7,29.4,29.63,West,280,2.0,7.0,20,0.00,,,0.00,VWS V14.01,2013-03-15 18:20:00,
2013-03-15 13:25:00,72.3,27.8,29.63,WNW,284,1.0,8.0,19,0.00,,,0.00,VWS V14.01,2013-03-15 18:25:00,
2013-03-15 13:30:00,72.3,29.0,29.63,WNW,284,1.0,8.0,20,0.00,,,0.00,VWS V14.01,2013-03-15 18:30:00,
2013-03-15 13:35:00,72.5,29.2,29.63,WNW,284,3.0,6.0,20,0.00,,,0.00,VWS V14.01,2013-03-15 18:35:00,
2013-03-15 13:40:00,72.3,29.0,29.63,WNW,284,5.0,6.0,20,0.00,,,0.00,VWS V14.01,2013-03-15 18:40:00,
2013-03-15 13:45:00,72.0,28.8,29.63,West,263,1.0,6.0,20,0.00,,,0.00,VWS V14.01,2013-03-15 18:45:00,
2013-03-15 13:50:00,71.6,29.6,29.62,WSW,244,5.0,12.0,21,0.00,,,0.00,VWS V14.01,2013-03-15 18:50:00,
2013-03-15 13:55:00,71.6,29.6,29.62,West,271,3.0,12.0,21,0.00,,,0.00,VWS V14.01,2013-03-15 18:55:00,
2013-03-15 14:00:00,71.8,29.8,29.62,WSW,258,3.0,12.0,21,0.00,,,0.00,VWS V14.01,2013-03-15 19:00:00,
2013-03-15 14:05:00,71.8,28.6,29.62,West,268,3.0,7.0,20,0.00,,,0.00,VWS V14.01,2013-03-15 19:05:00,
2013-03-15 14:10:00,72.0,28.8,29.62,West,275,5.0,9.0,20,0.00,,,0.00,VWS V14.01,2013-03-15 19:10:00,
2013-03-15 14:15:00,71.8,28.6,29.62,West,268,5.0,10.0,20,0.00,,,0.00,VWS V14.01,2013-03-15 19:15:00,
2013-03-15 14:20:00,71.5,29.5,29.61,West,281,4.0,7.0,21,0.00,,,0.00,VWS V14.01,2013-03-15 19:20:00,
2013-03-15 14:25:00,71.8,28.6,29.61,NW,319,7.0,10.0,20,0.00,,,0.00,VWS V14.01,2013-03-15 19:25:00,
2013-03-15 14:30:00,72.7,29.4,29.61,West,274,5.0,10.0,20,0.00,,,0.00,VWS V14.01,2013-03-15 19:30:00,
2013-03-15 14:35:00,73.3,28.6,29.61,WNW,282,7.0,12.0,19,0.00,,,0.00,VWS V14.01,2013-03-15 19:35:00,
2013-03-15 14:40:00,73.5,28.8,29.61,NW,305,6.0,12.0,19,0.00,,,0.00,VWS V14.01,2013-03-15 19:40:00,
2013-03-15 14:45:00,74.0,30.4,29.61,WNW,298,5.0,12.0,20,0.00,,,0.00,VWS V14.01,2013-03-15 19:45:00,
2013-03-15 14:50:00,74.2,28.0,29.59,WNW,294,5.0,7.0,18,0.00,,,0.00,VWS V14.01,2013-03-15 19:50:00,
2013-03-15 14:55:00,74.7,28.4,29.59,West,277,6.0,10.0,18,0.00,,,0.00,VWS V14.01,2013-03-15 19:55:00,
2013-03-15 15:00:00,74.9,25.7,29.59,WSW,243,6.0,13.0,16,0.00,,,0.00,VWS V14.01,2013-03-15 20:00:00,
2013-03-15 15:05:00,74.9,25.7,29.58,West,272,5.0,13.0,16,0.00,,,0.00,VWS V14.01,2013-03-15 20:05:00,
2013-03-15 15:10:00,74.9,25.7,29.58,WNW,301,6.0,13.0,16,0.00,,,0.00,VWS V14.01,2013-03-15 20:10:00,
2013-03-15 15:15:00,75.3,26.0,29.58,WNW,284,6.0,13.0,16,0.00,,,0.00,VWS V14.01,2013-03-15 20:15:00,
2013-03-15 15:20:00,75.8,23.2,29.58,WNW,285,6.0,13.0,14,0.00,,,0.00,VWS V14.01,2013-03-15 20:20:00,
2013-03-15 15:25:00,75.8,23.2,29.58,WNW,285,2.0,13.0,14,0.00,,,0.00,VWS V14.01,2013-03-15 20:25:00,
2013-03-15 15:30:00,76.1,21.7,29.58,WNW,295,11.0,13.0,13,0.00,,,0.00,VWS V14.01,2013-03-15 20:30:00,
2013-03-15 15:35:00,76.1,21.7,29.57,West,281,5.0,10.0,13,0.00,,,0.00,VWS V14.01,2013-03-15 20:35:00,
2013-03-15 15:40:00,76.7,24.0,29.57,NW,304,3.0,13.0,14,0.00,,,0.00,VWS V14.01,2013-03-15 20:40:00,
2013-03-15 15:45:00,76.8,20.4,29.57,WNW,295,11.0,13.0,12,0.00,,,0.00,VWS V14.01,2013-03-15 20:45:00,
2013-03-15 15:50:00,76.8,20.4,29.56,NW,306,5.0,12.0,12,0.00,,,0.00,VWS V14.01,2013-03-15 20:50:00,
2013-03-15 15:55:00,77.0,20.5,29.56,NW,304,5.0,12.0,12,0.00,,,0.00,VWS V14.01,2013-03-15 20:55:00,
2013-03-15 16:00:00,77.4,20.9,29.56,WNW,295,10.0,12.0,12,0.00,,,0.00,VWS V14.01,2013-03-15 21:00:00,
2013-03-15 16:05:00,77.0,18.5,29.56,WNW,282,10.0,13.0,11,0.00,,,0.00,VWS V14.01,2013-03-15 21:05:00,
2013-03-15 16:10:00,76.7,20.3,29.56,West,278,8.0,14.0,12,0.00,,,0.00,VWS V14.01,2013-03-15 21:10:00,
2013-03-15 16:15:00,76.8,22.3,29.56,WNW,294,7.0,14.0,13,0.00,,,0.00,VWS V14.01,2013-03-15 21:15:00,
2013-03-15 16:20:00,77.0,18.5,29.56,North,356,5.0,10.0,11,0.00,,,0.00,VWS V14.01,2013-03-15 21:20:00,
2013-03-15 16:25:00,77.4,22.8,29.56,NW,313,2.0,10.0,13,0.00,,,0.00,VWS V14.01,2013-03-15 21:25:00,
2013-03-15 16:30:00,77.2,22.6,29.56,NW,325,5.0,11.0,13,0.00,,,0.00,VWS V14.01,2013-03-15 21:30:00,
2013-03-15 16:35:00,77.2,20.7,29.56,WNW,291,4.0,9.0,12,0.00,,,0.00,VWS V14.01,2013-03-15 21:35:00,
2013-03-15 16:40:00,77.2,20.7,29.56,WNW,296,7.0,10.0,12,0.00,,,0.00,VWS V14.01,2013-03-15 21:40:00,
2013-03-15 16:45:00,77.0,20.5,29.56,NNW,336,5.0,10.0,12,0.00,,,0.00,VWS V14.01,2013-03-15 21:45:00,
2013-03-15 16:50:00,76.8,22.3,29.56,NNW,332,5.0,9.0,13,0.00,,,0.00,VWS V14.01,2013-03-15 21:50:00,
2013-03-15 16:55:00,76.3,21.9,29.56,North,356,6.0,11.0,13,0.00,,,0.00,VWS V14.01,2013-03-15 21:55:00,
2013-03-15 17:00:00,75.6,23.1,29.56,North,349,10.0,12.0,14,0.00,,,0.00,VWS V14.01,2013-03-15 22:00:00,
2013-03-15 17:05:00,75.4,19.3,29.56,NNW,328,4.0,17.0,12,0.00,,,0.00,VWS V14.01,2013-03-15 22:05:00,
2013-03-15 17:10:00,76.0,21.6,29.56,NNW,329,2.0,17.0,13,0.00,,,0.00,VWS V14.01,2013-03-15 22:10:00,
2013-03-15 17:15:00,76.5,20.2,29.57,West,281,7.0,17.0,12,0.00,,,0.00,VWS V14.01,2013-03-15 22:15:00,
2013-03-15 17:20:00,76.8,20.4,29.57,NW,304,5.0,10.0,12,0.00,,,0.00,VWS V14.01,2013-03-15 22:20:00,
2013-03-15 17:25:00,76.8,20.4,29.57,NNW,343,6.0,10.0,12,0.00,,,0.00,VWS V14.01,2013-03-15 22:25:00,
2013-03-15 17:30:00,76.7,22.2,29.57,NNW,346,2.0,10.0,13,0.00,,,0.00,VWS V14.01,2013-03-15 22:30:00,
2013-03-15 17:35:00,75.6,23.1,29.57,North,359,6.0,14.0,14,0.00,,,0.00,VWS V14.01,2013-03-15 22:35:00,
2013-03-15 17:40:00,75.6,24.7,29.57,North,359,10.0,14.0,15,0.00,,,0.00,VWS V14.01,2013-03-15 22:40:00,
2013-03-15 17:45:00,75.4,21.2,29.57,North,354,2.0,14.0,13,0.00,,,0.00,VWS V14.01,2013-03-15 22:45:00,
2013-03-15 17:50:00,75.6,23.1,29.57,NNW,343,3.0,10.0,14,0.00,,,0.00,VWS V14.01,2013-03-15 22:50:00,
2013-03-15 17:55:00,75.4,19.3,29.57,NNW,329,5.0,10.0,12,0.00,,,0.00,VWS V14.01,2013-03-15 22:55:00,
2013-03-15 18:00:00,75.3,22.9,29.57,NNW,329,2.0,10.0,14,0.00,,,0.00,VWS V14.01,2013-03-15 23:00:00,
2013-03-15 18:05:00,75.4,22.9,29.57,NNW,329,2.0,5.0,14,0.00,,,0.00,VWS V14.01,2013-03-15 23:05:00,
2013-03-15 18:10:00,75.4,22.9,29.57,NNW,329,2.0,5.0,14,0.00,,,0.00,VWS V14.01,2013-03-15 23:10:00,
2013-03-15 18:15:00,75.3,24.5,29.57,NNW,329,0.0,5.0,15,0.00,,,0.00,VWS V14.01,2013-03-15 23:15:00,
2013-03-15 18:20:00,74.7,24.0,29.57,North,357,6.0,8.0,15,0.00,,,0.00,VWS V14.01,2013-03-15 23:20:00,
2013-03-15 18:25:00,74.4,23.8,29.57,North,359,7.0,11.0,15,0.00,,,0.00,VWS V14.01,2013-03-15 23:25:00,
2013-03-15 18:30:00,74.2,26.6,29.58,North,359,10.0,12.0,17,0.00,,,0.00,VWS V14.01,2013-03-15 23:30:00,
2013-03-15 18:35:00,72.7,29.4,29.58,North,354,10.0,12.0,20,0.00,,,0.00,VWS V14.01,2013-03-15 23:35:00,
2013-03-15 18:40:00,73.2,25.8,29.58,North,357,5.0,12.0,17,0.00,,,0.00,VWS V14.01,2013-03-15 23:40:00,
2013-03-15 18:45:00,73.7,26.2,29.58,North,359,3.0,12.0,17,0.00,,,0.00,VWS V14.01,2013-03-15 23:45:00,
2013-03-15 18:50:00,73.9,24.9,29.58,North,357,5.0,8.0,16,0.00,,,0.00,VWS V14.01,2013-03-15 23:50:00,
2013-03-15 18:55:00,73.5,26.1,29.58,North,353,8.0,15.0,17,0.00,,,0.00,VWS V14.01,2013-03-15 23:55:00,
2013-03-15 19:00:00,73.0,27.0,29.59,North,356,12.0,15.0,18,0.00,,,0.00,VWS V14.01,2013-03-16 00:00:00,
2013-03-15 19:05:00,72.7,24.0,29.59,North,359,12.0,15.0,16,0.00,,,0.00,VWS V14.01,2013-03-16 00:05:00,
2013-03-15 19:10:00,72.1,26.3,29.59,North,0,12.0,15.0,18,0.00,,,0.00,VWS V14.01,2013-03-16 00:10:00,
2013-03-15 19:15:00,72.3,26.5,29.59,North,357,7.0,15.0,18,0.00,,,0.00,VWS V14.01,2013-03-16 00:15:00,
2013-03-15 19:20:00,72.1,24.9,29.59,North,357,4.0,10.0,17,0.00,,,0.00,VWS V14.01,2013-03-16 00:20:00,
2013-03-15 19:25:00,71.6,27.2,29.59,North,349,14.0,14.0,19,0.00,,,0.00,VWS V14.01,2013-03-16 00:25:00,
2013-03-15 19:30:00,71.1,28.0,29.60,North,0,8.0,14.0,20,0.00,,,0.00,VWS V14.01,2013-03-16 00:30:00,
2013-03-15 19:35:00,70.4,27.5,29.60,North,0,11.0,14.0,20,0.00,,,0.00,VWS V14.01,2013-03-16 00:35:00,
2013-03-15 19:40:00,68.9,28.5,29.60,NNW,347,10.0,14.0,22,0.00,,,0.00,VWS V14.01,2013-03-16 00:40:00,
2013-03-15 19:45:00,67.8,28.7,29.62,North,352,7.0,14.0,23,0.00,,,0.00,VWS V14.01,2013-03-16 00:45:00,
2013-03-15 19:50:00,66.8,29.9,29.62,North,359,9.0,12.0,25,0.00,,,0.00,VWS V14.01,2013-03-16 00:50:00,
2013-03-15 19:55:00,66.0,31.1,29.62,North,359,10.0,12.0,27,0.00,,,0.00,VWS V14.01,2013-03-16 00:55:00,
2013-03-15 20:00:00,66.1,30.2,29.63,North,353,9.0,12.0,26,0.00,,,0.00,VWS V14.01,2013-03-16 01:00:00,
2013-03-15 20:05:00,65.8,29.0,29.63,North,359,7.0,10.0,25,0.00,,,0.00,VWS V14.01,2013-03-16 01:05:00,
2013-03-15 20:10:00,64.5,30.7,29.63,North,0,7.0,11.0,28,0.00,,,0.00,VWS V14.01,2013-03-16 01:10:00,
2013-03-15 20:15:00,61.8,33.9,29.65,NNE,28,11.0,17.0,35,0.00,,,0.00,VWS V14.01,2013-03-16 01:15:00,
2013-03-15 20:20:00,60.2,36.4,29.65,NNE,31,13.0,14.0,41,0.00,,,0.00,VWS V14.01,2013-03-16 01:20:00,
2013-03-15 20:25:00,60.1,38.1,29.65,NE,37,10.0,19.0,44,0.00,,,0.00,VWS V14.01,2013-03-16 01:25:00,
2013-03-15 20:30:00,59.8,37.9,29.67,NE,34,13.0,24.0,44,0.00,,,0.00,VWS V14.01,2013-03-16 01:30:00,
2013-03-15 20:35:00,59.5,38.2,29.67,NNE,30,11.0,19.0,45,0.00,,,0.00,VWS V14.01,2013-03-16 01:35:00,
2013-03-15 20:40:00,59.2,37.3,29.67,NE,44,13.0,20.0,44,0.00,,,0.00,VWS V14.01,2013-03-16 01:40:00,
2013-03-15 20:45:00,59.6,38.2,29.68,NE,41,12.0,21.0,45,0.00,,,0.00,VWS V14.01,2013-03-16 01:45:00,
2013-03-15 20:50:00,58.3,37.6,29.68,NE,38,21.0,21.0,46,0.00,,,0.00,VWS V14.01,2013-03-16 01:50:00,
2013-03-15 20:55:00,58.6,37.9,29.68,NE,48,20.0,26.0,46,0.00,,,0.00,VWS V14.01,2013-03-16 01:55:00,
2013-03-15 21:00:00,58.1,38.5,29.69,NE,44,18.0,26.0,48,0.00,,,0.00,VWS V14.01,2013-03-16 02:00:00,
2013-03-15 21:05:00,57.3,37.8,29.69,NNE,32,18.0,22.0,48,0.00,,,0.00,VWS V14.01,2013-03-16 02:05:00,
2013-03-15 21:10:00,56.9,38.0,29.69,NE,35,13.0,22.0,49,0.00,,,0.00,VWS V14.01,2013-03-16 02:10:00,
2013-03-15 21:15:00,56.6,39.2,29.68,NE,44,12.0,22.0,52,0.00,,,0.00,VWS V14.01,2013-03-16 02:15:00,
2013-03-15 21:20:00,56.5,38.6,29.68,NE,38,19.0,19.0,51,0.00,,,0.00,VWS V14.01,2013-03-16 02:20:00,
2013-03-15 21:25:00,55.7,38.8,29.68,NE,48,14.0,21.0,53,0.00,,,0.00,VWS V14.01,2013-03-16 02:25:00,
2013-03-15 21:30:00,55.1,39.2,29.70,NE,41,11.0,21.0,55,0.00,,,0.00,VWS V14.01,2013-03-16 02:30:00,
2013-03-15 21:35:00,55.0,39.2,29.70,NE,35,12.0,18.0,55,0.00,,,0.00,VWS V14.01,2013-03-16 02:35:00,
2013-03-15 21:40:00,54.2,38.4,29.70,NE,40,17.0,18.0,55,0.00,,,0.00,VWS V14.01,2013-03-16 02:40:00,
2013-03-15 21:45:00,53.8,38.9,29.71,NNE,31,11.0,19.0,57,0.00,,,0.00,VWS V14.01,2013-03-16 02:45:00,
2013-03-15 21:50:00,53.6,38.3,29.71,NE,44,10.0,16.0,56,0.00,,,0.00,VWS V14.01,2013-03-16 02:50:00,
2013-03-15 21:55:00,53.5,39.5,29.71,NE,37,10.0,16.0,59,0.00,,,0.00,VWS V14.01,2013-03-16 02:55:00,
2013-03-15 21:58:00,51.0,37.2,29.72,NE,37,12.0,18.0,59,0.00,,,0.00,VWS V14.01,2013-03-16 02:58:00,
2013-03-15 21:59:00,50.8,37.0,29.72,NNE,21,13.0,18.0,59,0.00,,,0.00,VWS V14.01,2013-03-16 02:59:00,
2013-03-15 22:00:00,52.9,39.0,29.71,NE,38,10.0,16.0,59,0.00,,,0.00,VWS V14.01,2013-03-16 03:00:00,
2013-03-15 22:01:00,50.7,37.8,29.73,NE,40,14.0,17.0,61,0.00,,,0.00,VWS V14.01,2013-03-16 03:01:00,
2013-03-15 22:02:00,50.7,38.2,29.73,NE,35,12.0,17.0,62,0.00,,,0.00,VWS V14.01,2013-03-16 03:02:00,
2013-03-15 22:03:00,50.5,38.4,29.73,NE,37,14.0,17.0,63,0.00,,,0.00,VWS V14.01,2013-03-16 03:03:00,
2013-03-15 22:04:00,50.4,37.5,29.73,NE,41,11.0,17.0,61,0.00,,,0.00,VWS V14.01,2013-03-16 03:04:00,
2013-03-15 22:05:00,52.8,39.3,29.71,NE,37,11.0,16.0,60,0.00,,,0.00,VWS V14.01,2013-03-16 03:05:00,
2013-03-15 22:10:00,52.6,39.1,29.71,NNE,30,14.0,17.0,60,0.00,,,0.00,VWS V14.01,2013-03-16 03:10:00,
2013-03-15 22:15:00,52.9,39.0,29.71,NE,44,13.0,21.0,59,0.00,,,0.00,VWS V14.01,2013-03-16 03:15:00,
2013-03-15 22:20:00,52.5,38.2,29.71,NE,52,13.0,19.0,58,0.00,,,0.00,VWS V14.01,2013-03-16 03:20:00,
2013-03-15 22:25:00,52.0,39.4,29.71,NE,42,8.0,19.0,62,0.00,,,0.00,VWS V14.01,2013-03-16 03:25:00,
2013-03-15 22:30:00,51.6,39.0,29.71,NE,37,11.0,19.0,62,0.00,,,0.00,VWS V14.01,2013-03-16 03:30:00,
2013-03-15 22:35:00,51.6,38.2,29.71,NE,47,13.0,13.0,60,0.00,,,0.00,VWS V14.01,2013-03-16 03:35:00,
2013-03-15 22:40:00,51.0,39.3,29.71,NE,40,10.0,16.0,64,0.00,,,0.00,VWS V14.01,2013-03-16 03:40:00,
2013-03-15 22:45:00,51.7,38.7,29.72,NE,40,12.0,17.0,61,0.00,,,0.00,VWS V14.01,2013-03-16 03:45:00,
2013-03-15 22:50:00,51.0,38.5,29.72,NNE,32,12.0,16.0,62,0.00,,,0.00,VWS V14.01,2013-03-16 03:50:00,
2013-03-15 22:55:00,51.3,38.3,29.72,NE,37,14.0,18.0,61,0.00,,,0.00,VWS V14.01,2013-03-16 03:55:00,
2013-03-15 23:00:00,46.4,37.9,29.74,NE,40,12.0,14.0,72,0.00,,,0.00,VWS V14.01,2013-03-16 04:00:00,
2013-03-15 23:04:00,50.5,38.4,29.73,NE,40,15.0,17.0,63,0.00,,,0.00,VWS V14.01,2013-03-16 04:04:00,
2013-03-15 23:09:00,49.9,37.8,29.73,NE,37,8.0,17.0,63,0.00,,,0.00,VWS V14.01,2013-03-16 04:09:00,
2013-03-15 23:14:00,49.4,38.1,29.73,NE,34,11.0,17.0,65,0.00,,,0.00,VWS V14.01,2013-03-16 04:14:00,
2013-03-15 23:15:00,45.7,38.2,29.74,NE,41,11.0,13.0,75,0.00,,,0.00,VWS V14.01,2013-03-16 04:15:00,
2013-03-15 23:19:00,48.9,38.8,29.72,NE,45,12.0,14.0,68,0.00,,,0.00,VWS V14.01,2013-03-16 04:19:00,
2013-03-15 23:24:00,48.9,38.8,29.72,NE,44,13.0,17.0,68,0.00,,,0.00,VWS V14.01,2013-03-16 04:24:00,
2013-03-15 23:29:00,48.5,38.1,29.72,NE,45,14.0,17.0,67,0.00,,,0.00,VWS V14.01,2013-03-16 04:29:00,
2013-03-15 23:30:00,45.2,38.1,29.74,NE,44,7.0,13.0,76,0.00,,,0.00,VWS V14.01,2013-03-16 04:30:00,
2013-03-15 23:34:00,48.3,38.2,29.72,NNE,31,12.0,17.0,68,0.00,,,0.00,VWS V14.01,2013-03-16 04:34:00,
2013-03-15 23:39:00,48.0,37.6,29.72,NE,45,13.0,17.0,67,0.00,,,0.00,VWS V14.01,2013-03-16 04:39:00,
2013-03-15 23:44:00,47.7,38.8,29.72,NNE,28,12.0,17.0,71,0.00,,,0.00,VWS V14.01,2013-03-16 04:44:00,
2013-03-15 23:45:00,44.9,37.8,29.74,NE,40,9.0,12.0,76,0.00,,,0.00,VWS V14.01,2013-03-16 04:45:00,
2013-03-15 23:49:00,47.1,37.8,29.74,NE,38,12.0,12.0,70,0.00,,,0.00,VWS V14.01,2013-03-16 04:49:00,
2013-03-15 23:54:00,46.8,38.3,29.74,NNE,31,12.0,14.0,72,0.00,,,0.00,VWS V14.01,2013-03-16 04:54:00,
2013-03-15 23:59:00,46.5,38.0,29.74,NNE,32,12.0,14.0,72,0.00,,,0.00,VWS V14.01,2013-03-16 04:59:00,